Hadlock, Washington
Current Conditions -  °F | °C
As of 6:56 PM on Friday 21 Nov 2014 (Local Time) from KNUW Reporting Station
Overcast Overcast  
Wind Chill: 51°   Ceiling: 1400
Heat Index: 51°   Visibility: 10mi
Dew Point: 46°   Wind: 13mph
Humidity: 83%   Direction: 150°SSE
Pressure: 29.3"   Gusts: 23mph
Location:  48.0288°N, 122.77°W
Report Text: KNUW 220256Z 15011G20KT 10SM BKN014 BKN048 BKN110 OVC150 11/08 A2930 RMK AO2 PK WND 14030/0221 RAE29 SLP924 P0001 60003 T01060078 55001 $
Loading
Personal Weather Stations






























Interactive Weather Map New forecast layout! Learn more

10-Day Weather Forecast

Advertisements
Track Severe Weather on mobile